Time;durP1;ratioP1;P1;durP2;ratioP2;P2;SDS_P1;SDS_P2;PMS_P1;PMS_P2;Temp;Humidity;BMP_temperature;BMP_pressure;BME280_temperature;BME280_humidity;BME280_pressure;Samples;Min_cycle;Max_cycle;Signal;HPM_P1;HPM_P2
2022/04/25 00:02:17;;;;;;;5.20;1.50;;;;;14.50;96950.80;;;;110862;1249;40746;-61
2022/04/25 00:04:48;;;;;;;6.80;1.70;;;;;14.50;96944.80;;;;110798;1251;41718;-60
2022/04/25 00:07:17;;;;;;;3.20;1.50;;;;;14.50;96940.60;;;;110772;1249;41211;-60
2022/04/25 00:09:47;;;;;;;4.10;1.60;;;;;14.50;96931.40;;;;110803;1250;41147;-60
2022/04/25 00:12:17;;;;;;;3.80;1.50;;;;;14.48;96924.40;;;;110772;1249;41169;-59
2022/04/25 00:14:47;;;;;;;3.50;1.50;;;;;14.42;96920.60;;;;110576;1252;41187;-59
2022/04/25 00:17:16;;;;;;;6.90;1.90;;;;;14.40;96913.80;;;;110655;1252;41165;-59
2022/04/25 00:19:46;;;;;;;6.00;1.80;;;;;14.40;96893.60;;;;110797;1250;42372;-59
2022/04/25 00:22:17;;;;;;;7.90;2.00;;;;;14.30;96880.60;;;;110803;1249;41312;-59
2022/04/25 00:24:48;;;;;;;8.20;2.20;;;;;14.30;96877.00;;;;110774;1249;41907;-59
2022/04/25 00:27:18;;;;;;;4.10;1.60;;;;;14.30;96869.40;;;;110683;1249;41578;-59
2022/04/25 00:29:51;;;;;;;3.30;1.50;;;;;14.20;96874.80;;;;110736;1251;42131;-59
2022/04/25 00:32:21;;;;;;;7.20;1.70;;;;;14.20;96869.20;;;;110817;1250;41142;-59
2022/04/25 00:34:52;;;;;;;5.20;1.60;;;;;14.20;96865.60;;;;110714;1252;41962;-59
2022/04/25 00:37:22;;;;;;;9.30;1.80;;;;;14.10;96844.20;;;;110664;1252;41144;-59
2022/04/25 00:39:52;;;;;;;5.40;1.70;;;;;14.00;96833.60;;;;110736;1252;41742;-59
2022/04/25 00:42:22;;;;;;;5.10;1.60;;;;;14.00;96828.60;;;;110692;1251;41262;-58
2022/04/25 00:44:51;;;;;;;6.30;1.90;;;;;14.00;96829.40;;;;110779;1252;41178;-58
2022/04/25 00:47:22;;;;;;;3.30;1.40;;;;;13.90;96824.40;;;;110770;1249;41253;-59
2022/04/25 00:49:53;;;;;;;5.90;1.50;;;;;13.90;96813.40;;;;110795;1251;42233;-59
2022/04/25 00:52:23;;;;;;;6.70;1.70;;;;;13.90;96818.60;;;;110789;1250;41215;-59
2022/04/25 00:54:53;;;;;;;4.60;1.70;;;;;13.80;96839.60;;;;110705;1251;42104;-59
2022/04/25 00:57:24;;;;;;;5.90;1.70;;;;;13.80;96839.80;;;;110659;1251;41258;-59
2022/04/25 00:59:54;;;;;;;;;;;;;13.80;96856.60;;;;110716;1251;41275;-60
2022/04/25 01:02:26;;;;;;;4.60;1.60;;;;;13.80;96850.20;;;;110590;1250;41156;-60
2022/04/25 01:04:58;;;;;;;4.80;1.80;;;;;13.70;96855.40;;;;110800;1251;41723;-59
2022/04/25 01:07:29;;;;;;;5.40;1.90;;;;;13.70;96819.20;;;;110760;1251;41973;-60
2022/04/25 01:10:00;;;;;;;11.10;2.00;;;;;13.68;96751.20;;;;110769;1252;41162;-61
2022/04/25 01:12:30;;;;;;;10.50;2.20;;;;;13.60;96743.20;;;;110595;1251;42389;-59
2022/04/25 01:15:08;;;;;;;8.00;2.10;;;;;13.60;96738.40;;;;110776;1249;41130;-60
2022/04/25 01:17:39;;;;;;;11.40;2.10;;;;;13.42;96767.60;;;;110674;1252;41661;-60
2022/04/25 01:20:09;;;;;;;;;;;;;13.30;96764.80;;;;110849;1249;41839;-60
2022/04/25 01:28:42;;;;;;;10.30;2.30;;;;;13.20;96786.40;;;;110706;1251;41198;-60
2022/04/25 01:31:12;;;;;;;7.80;2.00;;;;;13.20;96782.00;;;;110667;1250;41308;-60
2022/04/25 01:33:42;;;;;;;5.80;1.80;;;;;13.20;96778.20;;;;110515;1254;41221;-60
2022/04/25 01:36:13;;;;;;;7.30;1.90;;;;;13.20;96729.80;;;;110603;1252;41304;-60
2022/04/25 01:38:42;;;;;;;8.00;2.00;;;;;13.20;96699.20;;;;110645;1252;42207;-60
2022/04/25 01:41:12;;;;;;;5.60;2.10;;;;;13.20;96676.60;;;;110676;1251;41650;-60
2022/04/25 01:43:42;;;;;;;4.80;1.70;;;;;13.10;96683.20;;;;110630;1253;41482;-60
2022/04/25 01:46:12;;;;;;;7.50;2.00;;;;;13.10;96673.60;;;;110797;1252;41143;-60
2022/04/25 01:48:42;;;;;;;7.30;1.80;;;;;13.10;96706.20;;;;110687;1251;43029;-58
2022/04/25 01:51:12;;;;;;;5.10;1.70;;;;;13.10;96696.00;;;;110753;1251;41480;-58
2022/04/25 01:53:41;;;;;;;5.90;1.80;;;;;13.10;96690.00;;;;110715;1250;41380;-58
2022/04/25 01:56:11;;;;;;;12.30;2.50;;;;;13.10;96687.00;;;;110682;1252;41143;-58
2022/04/25 01:58:42;;;;;;;10.20;2.40;;;;;13.10;96688.40;;;;110603;1253;41272;-59
2022/04/25 02:01:12;;;;;;;8.40;2.20;;;;;13.10;96678.00;;;;110657;1250;41592;-59
2022/04/25 02:03:43;;;;;;;9.80;2.50;;;;;13.08;96682.20;;;;110655;1251;42072;-59
2022/04/25 02:06:13;;;;;;;7.10;1.80;;;;;13.02;96680.60;;;;110608;1251;41165;-59
2022/04/25 02:08:43;;;;;;;5.90;1.90;;;;;13.00;96681.20;;;;110598;1252;41913;-59
2022/04/25 02:11:20;;;;;;;;;;;;;13.00;96670.00;;;;110670;1251;41269;-59
2022/04/25 02:13:54;;;;;;;6.00;2.00;;;;;12.96;96673.40;;;;110728;1250;41155;-59
2022/04/25 02:16:25;;;;;;;7.40;2.30;;;;;12.94;96664.40;;;;110672;1251;41202;-59
2022/04/25 02:18:56;;;;;;;8.20;2.10;;;;;12.90;96659.00;;;;110645;1252;41152;-58
2022/04/25 02:21:26;;;;;;;10.50;2.10;;;;;12.90;96664.00;;;;110738;1249;41149;-59
2022/04/25 02:23:56;;;;;;;8.30;1.70;;;;;12.90;96660.80;;;;110821;1252;41160;-59
2022/04/25 02:26:26;;;;;;;9.00;2.00;;;;;12.90;96655.60;;;;110807;1251;42381;-59
2022/04/25 02:28:56;;;;;;;9.70;2.20;;;;;12.90;96638.80;;;;110792;1251;41536;-59
2022/04/25 02:31:26;;;;;;;8.40;2.10;;;;;12.90;96635.80;;;;110795;1250;41617;-58
2022/04/25 02:33:57;;;;;;;;;;;;;12.90;96627.80;;;;110773;1252;41130;-59
2022/04/25 02:36:27;;;;;;;9.70;2.30;;;;;12.90;96622.00;;;;110794;1249;42249;-59
2022/04/25 02:38:57;;;;;;;7.60;2.00;;;;;12.80;96614.60;;;;110781;1251;41288;-59
2022/04/25 02:41:26;;;;;;;7.60;2.30;;;;;12.80;96610.20;;;;110685;1250;41583;-59
2022/04/25 02:43:57;;;;;;;6.30;1.80;;;;;12.80;96601.80;;;;110630;1251;41609;-58
2022/04/25 02:46:27;;;;;;;10.60;1.90;;;;;12.80;96604.00;;;;110785;1250;41587;-59
2022/04/25 02:48:58;;;;;;;7.50;2.10;;;;;12.70;96595.80;;;;110799;1252;41826;-59
2022/04/25 02:51:28;;;;;;;10.40;2.00;;;;;12.70;96595.20;;;;110777;1249;41963;-59
2022/04/25 02:53:59;;;;;;;7.30;1.90;;;;;12.70;96592.00;;;;110703;1251;41162;-59
2022/04/25 02:56:29;;;;;;;7.90;1.80;;;;;12.60;96586.40;;;;110755;1251;41613;-59
2022/04/25 02:59:00;;;;;;;6.50;1.80;;;;;12.60;96584.00;;;;110801;1251;41720;-59
2022/04/25 03:01:29;;;;;;;7.80;2.00;;;;;12.56;96587.00;;;;110686;1251;41594;-59
2022/04/25 03:04:01;;;;;;;7.20;1.90;;;;;12.50;96587.60;;;;110598;1252;41279;-59
2022/04/25 03:06:30;;;;;;;7.40;2.10;;;;;12.50;96587.40;;;;110686;1251;41271;-59
2022/04/25 03:09:01;;;;;;;7.90;2.50;;;;;12.40;96585.80;;;;110677;1252;41386;-59
2022/04/25 03:11:35;;;;;;;7.80;1.90;;;;;12.40;96592.20;;;;110720;1249;42449;-59
2022/04/25 03:14:05;;;;;;;8.30;1.80;;;;;12.40;96589.60;;;;110732;1250;41581;-59
2022/04/25 03:16:36;;;;;;;6.00;1.60;;;;;12.38;96593.60;;;;110811;1251;41174;-61
2022/04/25 03:19:06;;;;;;;5.70;1.90;;;;;12.30;96592.80;;;;110770;1252;41837;-60
2022/04/25 03:21:36;;;;;;;7.30;1.80;;;;;12.30;96601.00;;;;110801;1252;41359;-60
2022/04/25 03:24:06;;;;;;;8.70;1.90;;;;;12.20;96602.40;;;;110691;1251;41531;-61
2022/04/25 03:26:37;;;;;;;7.60;1.80;;;;;12.18;96602.80;;;;110827;1249;42391;-59
2022/04/25 03:29:07;;;;;;;5.70;1.60;;;;;12.10;96603.60;;;;110743;1251;41591;-59
2022/04/25 03:31:37;;;;;;;;;;;;;12.10;96602.00;;;;110817;1251;41530;-59
2022/04/25 03:34:07;;;;;;;6.80;1.70;;;;;12.00;96602.00;;;;110802;1251;41260;-59
2022/04/25 03:36:37;;;;;;;8.60;1.80;;;;;12.00;96605.20;;;;110789;1251;42372;-59
2022/04/25 03:39:07;;;;;;;7.30;1.90;;;;;12.00;96600.60;;;;110737;1250;41146;-59
2022/04/25 03:41:37;;;;;;;6.90;1.80;;;;;12.00;96604.00;;;;110665;1250;41776;-59
2022/04/25 03:44:07;;;;;;;11.30;1.80;;;;;12.00;96604.80;;;;110654;1252;42124;-59
2022/04/25 03:46:37;;;;;;;6.90;2.00;;;;;12.00;96608.80;;;;110675;1252;41167;-59
2022/04/25 03:49:06;;;;;;;7.30;1.80;;;;;12.00;96616.80;;;;110795;1249;41273;-59
2022/04/25 03:51:36;;;;;;;6.20;1.80;;;;;12.00;96610.40;;;;110667;1252;41160;-59
2022/04/25 03:54:05;;;;;;;7.40;1.90;;;;;12.00;96609.80;;;;110754;1251;41470;-59
2022/04/25 03:59:24;;;;;;;8.70;1.80;;;;;12.00;96614.80;;;;110678;1251;41181;-59
2022/04/25 04:01:55;;;;;;;5.80;1.80;;;;;12.00;96618.80;;;;110814;1251;41507;-59
2022/04/25 04:04:25;;;;;;;7.70;1.80;;;;;12.08;96626.20;;;;110728;1251;41150;-59
2022/04/25 04:06:55;;;;;;;4.90;1.60;;;;;12.10;96624.60;;;;110666;1252;41627;-59
2022/04/25 04:12:17;;;;;;;9.90;2.10;;;;;12.20;96630.40;;;;110574;1251;41285;-59
2022/04/25 04:14:47;;;;;;;7.70;1.90;;;;;12.26;96625.20;;;;110824;1252;41174;-60
2022/04/25 04:17:17;;;;;;;6.80;1.80;;;;;12.30;96629.60;;;;110592;1252;42010;-59
2022/04/25 04:19:47;;;;;;;6.00;1.60;;;;;12.40;96628.20;;;;110707;1252;41600;-60
2022/04/25 04:22:17;;;;;;;4.80;1.80;;;;;12.40;96624.40;;;;110644;1250;41159;-59
2022/04/25 04:24:48;;;;;;;6.50;1.90;;;;;12.42;96627.20;;;;110763;1252;41547;-59
2022/04/25 04:27:19;;;;;;;8.20;2.30;;;;;12.50;96636.00;;;;110621;1251;42180;-61
2022/04/25 04:29:49;;;;;;;4.50;1.70;;;;;12.50;96636.60;;;;110651;1252;41387;-60
2022/04/25 04:32:47;;;;;;;8.70;2.00;;;;;12.50;96633.40;;;;112665;1243;41255;31
2022/04/25 04:36:17;;;;;;;5.70;2.00;;;;;12.60;96632.60;;;;110779;1253;41165;-61
2022/04/25 04:38:08;;;;;;;5.20;1.70;;;;;12.60;96634.00;;;;110558;1253;41232;-61
2022/04/25 04:40:37;;;;;;;6.10;2.10;;;;;12.68;96636.40;;;;110576;1253;41187;-60
2022/04/25 04:43:07;;;;;;;7.30;2.50;;;;;12.60;96635.60;;;;110441;1255;41662;-60
2022/04/25 04:45:37;;;;;;;5.00;1.80;;;;;12.60;96631.20;;;;110508;1253;41137;-60
2022/04/25 04:48:07;;;;;;;4.60;1.90;;;;;12.68;96629.40;;;;110474;1253;41396;-60
2022/04/25 04:50:36;;;;;;;7.00;1.90;;;;;12.70;96621.80;;;;110507;1253;41152;-60
2022/04/25 04:53:07;;;;;;;5.90;2.00;;;;;12.70;96614.60;;;;110593;1253;41146;-61
2022/04/25 04:55:37;;;;;;;5.10;2.00;;;;;12.80;96619.80;;;;110514;1253;41681;-61
2022/04/25 04:58:06;;;;;;;12.00;2.50;;;;;12.90;96629.80;;;;110537;1254;41141;-60
2022/04/25 05:00:36;;;;;;;13.60;2.40;;;;;13.00;96628.60;;;;110431;1254;41198;-60
2022/04/25 05:03:05;;;;;;;5.80;1.90;;;;;13.10;96628.80;;;;110528;1253;41915;-60
2022/04/25 05:05:34;;;;;;;8.10;2.10;;;;;13.24;96625.40;;;;110563;1253;41149;-60
2022/04/25 05:08:04;;;;;;;9.50;2.30;;;;;13.40;96626.80;;;;110519;1253;41257;-60
2022/04/25 05:10:34;;;;;;;5.50;1.90;;;;;13.46;96628.20;;;;110560;1253;41267;-60
2022/04/25 05:13:03;;;;;;;8.10;2.30;;;;;13.50;96625.00;;;;110576;1253;41273;-60
2022/04/25 05:15:33;;;;;;;7.00;2.40;;;;;13.56;96625.60;;;;110524;1253;41253;-60
2022/04/25 05:18:02;;;;;;;6.30;2.30;;;;;13.60;96624.60;;;;110549;1254;41274;-61
2022/04/25 05:20:32;;;;;;;6.50;2.10;;;;;13.70;96625.00;;;;110495;1253;41222;-61
2022/04/25 05:23:03;;;;;;;11.60;2.50;;;;;13.70;96629.60;;;;110568;1254;41251;-61
2022/04/25 05:25:35;;;;;;;11.00;2.30;;;;;13.70;96635.60;;;;110555;1253;41280;-61
2022/04/25 05:28:05;;;;;;;13.00;2.50;;;;;13.70;96632.80;;;;110465;1253;41621;-61
2022/04/25 05:30:36;;;;;;;10.60;2.60;;;;;13.70;96630.60;;;;110437;1254;41142;-61
2022/04/25 05:33:06;;;;;;;8.10;2.60;;;;;13.70;96629.40;;;;110579;1253;41651;-62
2022/04/25 05:35:35;;;;;;;10.40;2.20;;;;;13.80;96628.00;;;;110622;1252;42550;-60
2022/04/25 05:38:10;;;;;;;7.40;2.10;;;;;13.80;96622.80;;;;110536;1253;41150;-61
2022/04/25 05:40:40;;;;;;;9.40;2.00;;;;;13.90;96623.80;;;;110573;1253;41950;-60
2022/04/25 05:43:09;;;;;;;7.50;2.10;;;;;13.90;96618.00;;;;110575;1253;41617;-61
2022/04/25 05:45:39;;;;;;;11.30;2.50;;;;;14.00;96619.60;;;;110546;1253;41731;-61
2022/04/25 05:53:43;;;;;;;9.90;2.10;;;;;14.30;96613.40;;;;110548;1254;41157;-61
2022/04/25 05:56:12;;;;;;;5.80;1.60;;;;;14.32;96597.40;;;;110535;1253;41327;-60
2022/04/25 05:58:42;;;;;;;7.10;2.00;;;;;14.48;96588.80;;;;110524;1255;41273;-61
2022/04/25 06:01:11;;;;;;;7.00;2.30;;;;;14.60;96579.40;;;;110522;1253;41504;-61
2022/04/25 06:03:39;;;;;;;5.40;2.00;;;;;14.66;96573.60;;;;110531;1254;41279;-60
2022/04/25 06:06:09;;;;;;;6.40;1.80;;;;;14.80;96565.40;;;;110513;1256;41136;-61
2022/04/25 06:08:38;;;;;;;7.00;1.90;;;;;14.90;96571.20;;;;110559;1254;41606;-61
2022/04/25 06:11:08;;;;;;;8.10;2.30;;;;;15.00;96581.40;;;;110585;1254;41134;-61
2022/04/25 06:13:37;;;;;;;7.70;2.50;;;;;15.20;96583.60;;;;110581;1254;41188;-60
2022/04/25 06:16:06;;;;;;;8.80;2.10;;;;;15.30;96585.60;;;;110514;1253;41245;-61
2022/04/25 06:18:35;;;;;;;8.60;2.20;;;;;15.40;96585.20;;;;110413;1255;41156;-61
2022/04/25 06:21:04;;;;;;;7.50;2.20;;;;;15.50;96589.80;;;;110536;1253;41158;-61
2022/04/25 06:23:33;;;;;;;9.00;2.10;;;;;15.60;96585.00;;;;110449;1256;41160;-61
2022/04/25 06:26:03;;;;;;;9.90;2.20;;;;;15.70;96583.60;;;;110262;1256;41159;-61
2022/04/25 06:28:33;;;;;;;6.80;1.80;;;;;15.80;96585.80;;;;109884;1254;745624;-61
2022/04/25 06:31:02;;;;;;;14.40;2.40;;;;;15.90;96582.20;;;;110392;1256;41131;-61
2022/04/25 06:33:31;;;;;;;11.70;2.30;;;;;16.02;96581.00;;;;110577;1253;41155;-61
2022/04/25 06:36:00;;;;;;;14.90;2.40;;;;;16.10;96578.80;;;;110617;1253;41811;-60
2022/04/25 06:38:29;;;;;;;16.60;3.00;;;;;16.10;96575.60;;;;110565;1253;41177;-61
2022/04/25 06:41:00;;;;;;;9.90;2.10;;;;;16.10;96569.60;;;;110578;1253;41377;-61
2022/04/25 06:43:30;;;;;;;12.80;2.60;;;;;16.10;96561.80;;;;110634;1253;41382;-61
2022/04/25 06:45:59;;;;;;;9.40;1.70;;;;;16.20;96558.20;;;;110527;1253;41216;-62
2022/04/25 06:48:30;;;;;;;8.40;2.40;;;;;16.30;96550.60;;;;110569;1253;41143;-62
2022/04/25 06:51:00;;;;;;;11.30;2.10;;;;;16.40;96552.40;;;;110588;1254;41643;-61
2022/04/25 06:53:29;;;;;;;9.10;2.20;;;;;16.50;96549.40;;;;110443;1254;41262;-60
2022/04/25 06:55:58;;;;;;;10.60;2.20;;;;;16.66;96552.60;;;;110483;1255;41611;-59
2022/04/25 06:58:27;;;;;;;16.20;2.60;;;;;16.76;96555.80;;;;110494;1255;41616;-60
2022/04/25 07:00:56;;;;;;;10.70;2.20;;;;;16.88;96560.60;;;;110567;1254;41594;-63
2022/04/25 07:03:31;;;;;;;14.80;2.20;;;;;16.90;96560.80;;;;110642;1254;42081;-62
2022/04/25 07:06:00;;;;;;;7.90;2.00;;;;;17.00;96554.20;;;;110650;1253;41261;-61
2022/04/25 07:08:29;;;;;;;10.80;1.90;;;;;17.10;96558.20;;;;110595;1253;41820;-60
2022/04/25 07:10:59;;;;;;;12.90;1.90;;;;;17.20;96550.60;;;;110615;1253;41162;-60
2022/04/25 07:13:28;;;;;;;7.60;2.10;;;;;17.32;96559.20;;;;110594;1253;41157;-60
2022/04/25 07:16:02;;;;;;;7.30;1.80;;;;;17.44;96561.40;;;;110637;1254;41172;-60
2022/04/25 07:18:32;;;;;;;10.50;2.00;;;;;17.60;96559.00;;;;110536;1253;41410;-60
2022/04/25 07:28:48;;;;;;;10.40;2.10;;;;;17.68;96554.20;;;;110578;1254;41315;-60
2022/04/25 07:29:26;;;;;;;8.70;1.90;;;;;18.12;96535.60;;;;110532;1254;41159;-61
2022/04/25 07:31:55;;;;;;;6.20;2.00;;;;;18.40;96529.20;;;;110494;1256;41275;-61
2022/04/25 07:34:25;;;;;;;10.10;2.00;;;;;18.60;96535.00;;;;110358;1255;41164;-61
2022/04/25 07:36:54;;;;;;;7.60;2.00;;;;;18.60;96523.00;;;;110295;1256;41949;-61
2022/04/25 07:39:23;;;;;;;9.20;2.10;;;;;18.60;96517.40;;;;110491;1256;41273;-61
2022/04/25 07:41:52;;;;;;;8.40;2.00;;;;;18.80;96512.60;;;;110505;1254;42183;-60
2022/04/25 07:44:21;;;;;;;7.50;1.90;;;;;19.00;96510.40;;;;110509;1253;42534;-60
2022/04/25 07:46:55;;;;;;;13.20;2.70;;;;;19.10;96513.80;;;;110504;1253;41317;-60
2022/04/25 07:49:25;;;;;;;7.30;1.90;;;;;19.18;96505.60;;;;110535;1253;41209;-61
2022/04/25 07:51:55;;;;;;;9.10;2.10;;;;;19.22;96501.00;;;;110483;1253;41594;-61
2022/04/25 07:54:24;;;;;;;7.90;1.80;;;;;19.32;96503.80;;;;110517;1254;41264;-60
2022/04/25 07:56:55;;;;;;;14.40;2.20;;;;;19.50;96498.20;;;;110536;1253;40759;-60
2022/04/25 07:59:24;;;;;;;5.10;1.60;;;;;19.60;96492.80;;;;110522;1253;41150;-60
2022/04/25 08:01:53;;;;;;;8.90;2.00;;;;;19.76;96485.40;;;;110506;1254;42505;-60
2022/04/25 08:04:23;;;;;;;8.70;2.30;;;;;19.82;96492.20;;;;110583;1253;41133;-61
2022/04/25 08:06:52;;;;;;;8.30;1.60;;;;;19.90;96490.00;;;;110534;1253;42081;-60
2022/04/25 08:09:21;;;;;;;7.20;2.00;;;;;20.00;96497.00;;;;110537;1253;41162;-62
2022/04/25 08:17:56;;;;;;;6.30;1.90;;;;;20.10;96497.40;;;;110503;1253;41811;-63
2022/04/25 08:20:14;;;;;;;6.90;1.70;;;;;20.10;96483.60;;;;110488;1255;41153;-60
2022/04/25 08:22:46;;;;;;;4.10;1.60;;;;;20.30;96477.60;;;;110477;1255;41151;-61
2022/04/25 08:25:16;;;;;;;7.90;2.00;;;;;20.40;96479.00;;;;110516;1254;41207;-61
2022/04/25 08:27:45;;;;;;;10.10;1.90;;;;;20.50;96475.00;;;;110524;1253;41146;-61
2022/04/25 08:30:15;;;;;;;7.70;2.00;;;;;20.60;96466.00;;;;110536;1255;41310;-62
2022/04/25 08:32:46;;;;;;;9.70;2.10;;;;;20.70;96459.20;;;;110495;1255;41607;-60
2022/04/25 08:35:14;;;;;;;8.60;2.00;;;;;20.70;96445.40;;;;110541;1255;41162;-61
2022/04/25 08:37:43;;;;;;;6.00;1.60;;;;;20.70;96442.80;;;;110561;1255;41146;-60
2022/04/25 08:40:12;;;;;;;6.10;1.70;;;;;20.70;96437.40;;;;110581;1254;41366;-60
2022/04/25 08:42:43;;;;;;;8.80;1.80;;;;;20.80;96433.60;;;;110386;1256;41230;-62
2022/04/25 08:45:13;;;;;;;8.80;2.30;;;;;21.00;96443.00;;;;110491;1253;41290;-60
2022/04/25 08:47:50;;;;;;;7.70;1.80;;;;;21.20;96436.60;;;;110497;1256;42249;-60
2022/04/25 08:50:19;;;;;;;8.20;1.80;;;;;21.50;96427.60;;;;110470;1256;41240;-60
2022/04/25 08:52:49;;;;;;;5.90;1.90;;;;;21.90;96431.00;;;;110388;1256;41457;-61
2022/04/25 08:55:18;;;;;;;8.30;2.00;;;;;22.28;96427.80;;;;110301;1257;41685;-59
2022/04/25 08:57:49;;;;;;;7.70;1.70;;;;;22.50;96418.40;;;;110511;1255;42372;-60
2022/04/25 09:00:18;;;;;;;4.50;1.80;;;;;22.70;96417.80;;;;110504;1255;41960;-60
2022/04/25 09:02:49;;;;;;;7.30;2.00;;;;;22.70;96423.00;;;;110453;1256;41473;-60
2022/04/25 09:05:19;;;;;;;10.60;2.20;;;;;22.60;96419.40;;;;110450;1254;41920;-59
2022/04/25 09:07:49;;;;;;;7.90;1.80;;;;;22.40;96412.60;;;;110454;1254;41722;-61
2022/04/25 09:10:20;;;;;;;6.80;1.50;;;;;22.24;96412.40;;;;110477;1254;41709;-60
2022/04/25 09:12:52;;;;;;;7.30;2.00;;;;;22.10;96402.80;;;;110474;1256;41245;-60
2022/04/25 09:15:23;;;;;;;3.60;1.60;;;;;22.00;96401.00;;;;110386;1254;42022;-60
2022/04/25 09:17:55;;;;;;;4.70;1.50;;;;;21.90;96399.60;;;;110391;1256;41252;-59
2022/04/25 09:20:26;;;;;;;6.00;1.90;;;;;21.90;96397.00;;;;110514;1255;42521;-59
2022/04/25 09:22:58;;;;;;;8.90;1.80;;;;;21.80;96394.40;;;;110543;1253;40727;-60
2022/04/25 09:25:27;;;;;;;6.20;1.90;;;;;21.70;96398.40;;;;110515;1255;41157;-60
2022/04/25 09:28:15;;;;;;;7.70;1.80;;;;;21.60;96404.80;;;;110491;1253;41961;-60
2022/04/25 09:31:00;;;;;;;9.10;2.20;;;;;21.30;96417.80;;;;110428;1256;42369;-59
2022/04/25 09:33:30;;;;;;;9.20;1.90;;;;;21.00;96422.60;;;;110294;1256;42406;-60
2022/04/25 09:36:00;;;;;;;11.80;2.60;;;;;20.80;96431.80;;;;110405;1254;41286;-59
2022/04/25 09:38:31;;;;;;;10.00;2.30;;;;;20.60;96437.60;;;;110451;1255;41766;-60
2022/04/25 09:41:02;;;;;;;8.70;2.30;;;;;20.40;96440.60;;;;110487;1255;41726;-59
2022/04/25 09:43:34;;;;;;;8.80;2.10;;;;;20.24;96443.20;;;;110516;1255;41141;-59
2022/04/25 09:46:07;;;;;;;;;;;;;20.10;96454.20;;;;110583;1255;41136;-59
2022/04/25 09:48:37;;;;;;;9.00;2.60;;;;;19.90;96462.20;;;;110484;1254;41153;-59
2022/04/25 09:51:09;;;;;;;7.70;2.20;;;;;19.80;96462.00;;;;110480;1254;41131;-60
2022/04/25 09:53:45;;;;;;;7.00;2.00;;;;;19.70;96444.40;;;;110403;1254;41254;-60
2022/04/25 09:56:18;;;;;;;8.90;2.50;;;;;19.78;96436.20;;;;110465;1255;41260;-60
2022/04/25 09:59:07;;;;;;;5.80;1.60;;;;;19.90;96461.40;;;;110419;1254;41765;-59
2022/04/25 10:01:39;;;;;;;8.50;1.90;;;;;19.92;96468.20;;;;110440;1255;41147;-58
2022/04/25 10:04:34;;;;;;;12.80;2.00;;;;;20.00;96467.40;;;;110459;1255;41720;-59
2022/04/25 10:07:05;;;;;;;12.40;2.10;;;;;20.00;96473.40;;;;110491;1253;41329;-59
2022/04/25 10:09:34;;;;;;;;;;;;;19.90;96485.00;;;;110500;1253;41144;-59
2022/04/25 10:12:06;;;;;;;10.20;2.50;;;;;19.80;96509.80;;;;110499;1256;41163;-59
2022/04/25 10:14:36;;;;;;;1.70;1.30;;;;;19.66;96608.00;;;;110571;1252;41299;-60
2022/04/25 10:17:06;;;;;;;3.60;1.20;;;;;18.26;96721.60;;;;110536;1255;41159;-63
2022/04/25 10:19:35;;;;;;;7.00;1.30;;;;;16.08;96741.20;;;;110532;1255;41144;-63
2022/04/25 10:22:04;;;;;;;5.40;1.40;;;;;14.70;96745.80;;;;110519;1254;41258;-70
2022/04/25 10:24:34;;;;;;;3.60;1.20;;;;;12.86;96714.80;;;;110643;1254;41141;-74
2022/04/25 10:27:12;;;;;;;2.50;1.10;;;;;11.90;96728.60;;;;110650;1254;42167;-72
2022/04/25 10:29:45;;;;;;;1.70;1.20;;;;;11.42;96737.40;;;;110613;1255;41944;-72
2022/04/25 10:32:21;;;;;;;2.10;1.30;;;;;11.20;96743.40;;;;110591;1255;41738;-69
2022/04/25 10:34:54;;;;;;;2.50;1.50;;;;;11.00;96740.80;;;;110681;1254;41269;-70
2022/04/25 10:37:30;;;;;;;2.70;1.30;;;;;10.90;96743.00;;;;110652;1253;41468;-71
2022/04/25 10:40:02;;;;;;;3.10;1.60;;;;;10.90;96733.20;;;;110712;1256;40968;-72
2022/04/25 10:45:53;;;;;;;2.90;1.40;;;;;10.80;96753.20;;;;110609;1253;41267;-70
2022/04/25 10:48:26;;;;;;;3.10;1.40;;;;;10.80;96763.20;;;;110772;1253;41261;-69
2022/04/25 10:51:13;;;;;;;5.60;1.50;;;;;10.70;96772.40;;;;110683;1254;41154;-69
2022/04/25 10:54:02;;;;;;;2.70;1.30;;;;;10.70;96766.60;;;;110796;1253;41712;-69
2022/04/25 10:56:34;;;;;;;4.00;1.60;;;;;10.66;96773.00;;;;110812;1254;41154;-69
2022/04/25 10:59:23;;;;;;;2.10;1.20;;;;;10.70;96784.60;;;;110767;1253;41168;-71
2022/04/25 11:01:54;;;;;;;3.10;1.30;;;;;10.70;96775.60;;;;110799;1254;41616;-67
2022/04/25 11:04:26;;;;;;;3.80;1.50;;;;;10.60;96779.60;;;;110670;1254;41604;-69
2022/04/25 11:07:24;;;;;;;4.80;1.50;;;;;10.60;96771.00;;;;110563;1254;41155;-70
2022/04/25 11:09:54;;;;;;;2.80;1.50;;;;;10.60;96772.20;;;;110652;1254;41634;-70
2022/04/25 11:12:55;;;;;;;4.00;1.70;;;;;10.60;96769.20;;;;110665;1254;41264;-70
2022/04/25 11:15:39;;;;;;;4.30;1.80;;;;;10.60;96765.40;;;;110804;1254;41986;-69
2022/04/25 11:18:30;;;;;;;4.30;1.90;;;;;10.60;96757.80;;;;110772;1254;42533;-70
2022/04/25 11:21:21;;;;;;;;;;;;;;;;;;;;;
2022/04/25 11:23:52;;;;;;;1.90;1.40;;;;;10.60;96700.60;;;;110662;1254;41218;-71
2022/04/25 11:26:23;;;;;;;1.70;1.30;;;;;10.70;96715.80;;;;110643;1255;41273;-70
2022/04/25 11:29:01;;;;;;;2.20;1.40;;;;;10.70;96701.00;;;;110561;1256;41151;-68
2022/04/25 11:31:32;;;;;;;3.30;1.70;;;;;10.80;96661.80;;;;110637;1254;41643;-70
2022/04/25 11:34:13;;;;;;;2.80;1.60;;;;;10.84;96643.40;;;;110784;1254;41211;-71
2022/04/25 11:36:44;;;;;;;1.50;1.20;;;;;10.92;96630.40;;;;110835;1254;42385;-70
2022/04/25 11:42:06;;;;;;;1.90;1.30;;;;;11.16;96660.80;;;;110687;1255;42403;-70
2022/04/25 11:44:39;;;;;;;3.70;1.50;;;;;11.20;96658.00;;;;110721;1252;41377;-70
2022/04/25 11:47:09;;;;;;;5.10;1.40;;;;;11.32;96665.80;;;;110664;1254;41169;-70
2022/04/25 11:49:42;;;;;;;4.20;1.70;;;;;11.46;96643.60;;;;110497;1255;41731;-69
2022/04/25 11:52:15;;;;;;;5.50;1.80;;;;;11.60;96645.40;;;;110580;1255;41376;-69
2022/04/25 11:54:44;;;;;;;3.30;1.50;;;;;11.70;96649.00;;;;110610;1255;41887;-71
2022/04/25 11:57:13;;;;;;;2.60;1.50;;;;;11.80;96626.00;;;;110622;1254;41678;-70
2022/04/25 11:59:42;;;;;;;4.10;1.70;;;;;11.90;96622.80;;;;110643;1255;40940;-68
2022/04/25 12:02:11;;;;;;;3.10;1.50;;;;;12.06;96621.00;;;;110644;1254;41211;-67
2022/04/25 12:04:42;;;;;;;2.70;1.40;;;;;12.10;96618.00;;;;110640;1254;41448;-67
2022/04/25 12:07:11;;;;;;;2.30;1.40;;;;;12.30;96678.80;;;;110706;1251;41246;-67
2022/04/25 12:15:34;;;;;;;3.80;1.50;;;;;12.50;96672.80;;;;110625;1254;41843;-67
2022/04/25 12:18:15;;;;;;;1.50;1.30;;;;;12.60;96664.40;;;;110619;1254;41137;-67
2022/04/25 12:20:50;;;;;;;4.60;1.60;;;;;12.70;96670.00;;;;110698;1254;41618;-65
2022/04/25 12:23:26;;;;;;;4.30;1.80;;;;;12.90;96685.80;;;;110597;1254;40878;-67
2022/04/25 12:25:56;;;;;;;4.10;1.90;;;;;13.00;96706.20;;;;110600;1255;41152;-66
2022/04/25 12:28:29;;;;;;;4.30;1.60;;;;;13.00;96732.80;;;;110656;1256;41160;-66
2022/04/25 12:31:04;;;;;;;3.00;1.40;;;;;13.00;96721.40;;;;110640;1255;41251;-65
2022/04/25 12:33:39;;;;;;;3.90;1.50;;;;;13.10;96730.40;;;;110620;1255;41335;-65
2022/04/25 12:36:11;;;;;;;2.10;1.30;;;;;13.10;96722.60;;;;110636;1256;41487;-65
2022/04/25 12:38:43;;;;;;;3.70;1.50;;;;;13.20;96713.80;;;;110539;1254;41865;-66
2022/04/25 12:41:24;;;;;;;2.90;1.30;;;;;13.24;96702.60;;;;110443;1256;41715;-65
2022/04/25 12:43:55;;;;;;;3.00;1.60;;;;;13.40;96700.60;;;;110533;1254;41280;-65
2022/04/25 12:46:44;;;;;;;4.80;1.50;;;;;13.50;96694.40;;;;110518;1254;42625;-64
2022/04/25 12:49:17;;;;;;;3.50;1.50;;;;;13.60;96702.40;;;;110476;1254;41247;-65
2022/04/25 12:51:50;;;;;;;4.50;1.50;;;;;13.62;96707.40;;;;110536;1253;41170;-64
2022/04/25 12:54:24;;;;;;;2.30;1.50;;;;;13.70;96714.00;;;;110420;1255;41728;-65
2022/04/25 12:57:16;;;;;;;3.90;1.50;;;;;13.80;96715.80;;;;110534;1254;41160;-65
2022/04/25 12:59:48;;;;;;;2.60;1.60;;;;;13.90;96712.60;;;;110511;1254;41498;-66
2022/04/25 13:02:36;;;;;;;4.80;1.70;;;;;13.90;96709.20;;;;110518;1254;41152;-66
2022/04/25 13:05:07;;;;;;;3.90;1.70;;;;;14.00;96709.40;;;;110525;1254;41414;-65
2022/04/25 13:07:43;;;;;;;3.30;1.60;;;;;14.00;96713.60;;;;110388;1257;41390;-65
2022/04/25 13:10:18;;;;;;;3.60;1.50;;;;;14.10;96725.00;;;;110515;1254;41559;-65
2022/04/25 13:12:50;;;;;;;7.50;1.70;;;;;14.20;96726.80;;;;110511;1254;41719;-65
2022/04/25 13:15:21;;;;;;;4.10;1.60;;;;;14.20;96728.20;;;;110483;1254;41193;-65